CP3225 SABE-SAZM
Flight info
| Callsign | CP3225 |
|---|---|
| Flight time | 0h 59m |
| Altitude | 35000 |
| Route | PTA8 GBE UW29 VOTRA VOTRA2Q |
| Aircraft | C25B/M-SDE2E3FGHRWXY/LB1 |
Departure
| Time | 2026-05-06 22:23 |
|---|---|
| Airport | Aeroparque Jorge Newbery (SABE) |
Arrival
| Time | 2026-05-06 23:22 |
|---|---|
| Airport | Ástor Piazzola International Airport (SAZM) |
| Time | Latitude | Longitude | Altitude | Speed | Heading |
|---|---|---|---|---|---|
| 2026-05-06 21:55 | -34.55827 | -58.41408 | 22 ft | 0 kts | 209° |
| 2026-05-06 22:09 | -34.55831 | -58.41410 | 22 ft | 0 kts | 209° |
| 2026-05-06 22:10 | -34.55821 | -58.41403 | 22 ft | 2 kts | 209° |
| 2026-05-06 22:10 | -34.55808 | -58.41394 | 23 ft | 2 kts | 209° |
| 2026-05-06 22:10 | -34.55794 | -58.41385 | 22 ft | 2 kts | 209° |
| 2026-05-06 22:11 | -34.55780 | -58.41376 | 22 ft | 2 kts | 209° |
| 2026-05-06 22:11 | -34.55771 | -58.41369 | 22 ft | 0 kts | 209° |
| 2026-05-06 22:11 | -34.55774 | -58.41372 | 22 ft | 0 kts | 207° |
| 2026-05-06 22:12 | -34.55788 | -58.41380 | 22 ft | 0 kts | 209° |
| 2026-05-06 22:12 | -34.55801 | -58.41401 | 25 ft | 9 kts | 253° |
| 2026-05-06 22:13 | -34.55801 | -58.41413 | 23 ft | 0 kts | 274° |
| 2026-05-06 22:13 | -34.55799 | -58.41423 | 22 ft | 0 kts | 289° |
| 2026-05-06 22:13 | -34.55793 | -58.41433 | 22 ft | 8 kts | 322° |
| 2026-05-06 22:14 | -34.55762 | -58.41476 | 25 ft | 10 kts | 304° |
| 2026-05-06 22:14 | -34.55742 | -58.41517 | 24 ft | 0 kts | 301° |
| 2026-05-06 22:14 | -34.55737 | -58.41554 | 22 ft | 10 kts | 224° |
| 2026-05-06 22:14 | -34.55787 | -58.41608 | 23 ft | 8 kts | 251° |
| 2026-05-06 22:15 | -34.55771 | -58.41660 | 23 ft | 8 kts | 298° |
| 2026-05-06 22:15 | -34.55752 | -58.41663 | 22 ft | 6 kts | 119° |
| 2026-05-06 22:15 | -34.55811 | -58.41569 | 23 ft | 15 kts | 117° |
| 2026-05-06 22:15 | -34.55859 | -58.41453 | 22 ft | 16 kts | 116° |
| 2026-05-06 22:16 | -34.55900 | -58.41358 | 22 ft | 13 kts | 117° |
| 2026-05-06 22:16 | -34.55946 | -58.41261 | 23 ft | 8 kts | 125° |
| 2026-05-06 22:16 | -34.55957 | -58.41242 | 24 ft | 0 kts | 125° |
| 2026-05-06 22:16 | -34.55962 | -58.41235 | 23 ft | 9 kts | 125° |
| 2026-05-06 22:17 | -34.56018 | -58.41143 | 22 ft | 12 kts | 128° |
| 2026-05-06 22:17 | -34.56066 | -58.41064 | 22 ft | 9 kts | 127° |
| 2026-05-06 22:17 | -34.56110 | -58.40994 | 22 ft | 12 kts | 128° |
| 2026-05-06 22:17 | -34.56133 | -58.40959 | 23 ft | 11 kts | 129° |
| 2026-05-06 22:18 | -34.56163 | -58.40876 | 22 ft | 5 kts | 104° |
| 2026-05-06 22:18 | -34.56179 | -58.40844 | 22 ft | 3 kts | 139° |
| 2026-05-06 22:18 | -34.56199 | -58.40823 | 22 ft | 0 kts | 138° |
| 2026-05-06 22:19 | -34.56238 | -58.40778 | 22 ft | 15 kts | 136° |
| 2026-05-06 22:19 | -34.56303 | -58.40701 | 23 ft | 14 kts | 138° |
| 2026-05-06 22:19 | -34.56365 | -58.40646 | 21 ft | 8 kts | 162° |
| 2026-05-06 22:20 | -34.56393 | -58.40637 | 20 ft | 0 kts | 172° |
| 2026-05-06 22:22 | -34.56402 | -58.40636 | 20 ft | 10 kts | 180° |
| 2026-05-06 22:22 | -34.56422 | -58.40681 | 20 ft | 6 kts | 300° |
| 2026-05-06 22:22 | -34.56222 | -58.41039 | 22 ft | 118 kts | 313° |
| 2026-05-06 22:22 | -34.55555 | -58.42221 | 298 ft | 207 kts | 303° |
| 2026-05-06 22:23 | -34.54641 | -58.43881 | 1022 ft | 260 kts | 303° |
| 2026-05-06 22:23 | -34.53398 | -58.45595 | 1895 ft | 285 kts | 325° |
| 2026-05-06 22:23 | -34.51451 | -58.46245 | 2745 ft | 304 kts | 359° |
| 2026-05-06 22:23 | -34.49401 | -58.45540 | 3595 ft | 315 kts | 30° |
| 2026-05-06 22:24 | -34.47914 | -58.43674 | 4471 ft | 289 kts | 61° |
| 2026-05-06 22:24 | -34.47554 | -58.41536 | 5213 ft | 244 kts | 95° |
| 2026-05-06 22:24 | -34.48203 | -58.39706 | 5269 ft | 238 kts | 129° |
| 2026-05-06 22:24 | -34.49321 | -58.38240 | 5274 ft | 236 kts | 131° |
| 2026-05-06 22:25 | -34.50328 | -58.36664 | 5274 ft | 237 kts | 124° |
| 2026-05-06 22:25 | -34.51077 | -58.34899 | 5297 ft | 236 kts | 110° |
| 2026-05-06 22:25 | -34.51527 | -58.32922 | 5710 ft | 250 kts | 104° |
| 2026-05-06 22:25 | -34.52009 | -58.30850 | 6257 ft | 260 kts | 107° |
| 2026-05-06 22:26 | -34.52741 | -58.28833 | 6783 ft | 266 kts | 129° |
| 2026-05-06 22:26 | -34.54315 | -58.27667 | 7313 ft | 272 kts | 167° |
| 2026-05-06 22:26 | -34.56193 | -58.27782 | 7847 ft | 276 kts | 197° |
| 2026-05-06 22:26 | -34.58018 | -58.28547 | 8404 ft | 278 kts | 199° |
| 2026-05-06 22:27 | -34.59899 | -58.29155 | 8967 ft | 281 kts | 191° |
| 2026-05-06 22:27 | -34.61845 | -58.29451 | 9509 ft | 283 kts | 185° |
| 2026-05-06 22:27 | -34.63815 | -58.29654 | 10064 ft | 285 kts | 186° |
| 2026-05-06 22:27 | -34.65786 | -58.29951 | 10616 ft | 286 kts | 188° |
| 2026-05-06 22:28 | -34.67765 | -58.30254 | 11167 ft | 287 kts | 187° |
| 2026-05-06 22:28 | -34.69747 | -58.30562 | 11716 ft | 288 kts | 187° |
| 2026-05-06 22:28 | -34.71740 | -58.30848 | 12267 ft | 288 kts | 187° |
| 2026-05-06 22:28 | -34.73733 | -58.31150 | 12815 ft | 289 kts | 187° |
| 2026-05-06 22:29 | -34.75727 | -58.31444 | 13362 ft | 289 kts | 187° |
| 2026-05-06 22:29 | -34.77772 | -58.31754 | 13914 ft | 313 kts | 187° |
| 2026-05-06 22:29 | -34.80085 | -58.32099 | 14480 ft | 355 kts | 187° |
| 2026-05-06 22:29 | -34.82658 | -58.32482 | 15059 ft | 388 kts | 187° |
| 2026-05-06 22:30 | -34.85318 | -58.32881 | 15632 ft | 361 kts | 187° |
| 2026-05-06 22:30 | -34.87683 | -58.33232 | 16178 ft | 325 kts | 187° |
| 2026-05-06 22:30 | -34.89827 | -58.33557 | 16714 ft | 297 kts | 187° |
| 2026-05-06 22:30 | -34.91796 | -58.33849 | 17241 ft | 274 kts | 187° |
| 2026-05-06 22:31 | -34.93628 | -58.34127 | 17767 ft | 265 kts | 187° |
| 2026-05-06 22:31 | -34.95599 | -58.34422 | 18307 ft | 306 kts | 187° |
| 2026-05-06 22:31 | -34.97846 | -58.34762 | 18818 ft | 344 kts | 187° |
| 2026-05-06 22:31 | -35.00331 | -58.35131 | 19340 ft | 374 kts | 187° |
| 2026-05-06 22:32 | -35.03001 | -58.35537 | 19863 ft | 399 kts | 187° |
| 2026-05-06 22:32 | -35.05823 | -58.35956 | 20383 ft | 417 kts | 187° |
| 2026-05-06 22:32 | -35.08745 | -58.36401 | 20987 ft | 428 kts | 187° |
| 2026-05-06 22:32 | -35.11724 | -58.36845 | 21628 ft | 435 kts | 187° |
| 2026-05-06 22:33 | -35.14740 | -58.37305 | 22266 ft | 439 kts | 187° |
| 2026-05-06 22:33 | -35.17794 | -58.37760 | 22895 ft | 443 kts | 187° |
| 2026-05-06 22:33 | -35.20858 | -58.38228 | 23528 ft | 445 kts | 187° |
| 2026-05-06 22:33 | -35.22893 | -58.38532 | 23949 ft | 446 kts | 187° |
| 2026-05-06 22:34 | -35.25971 | -58.38999 | 24574 ft | 446 kts | 187° |
| 2026-05-06 22:34 | -35.30062 | -58.39614 | 25682 ft | 435 kts | 187° |
| 2026-05-06 22:34 | -35.32034 | -58.39915 | 26259 ft | 427 kts | 187° |
| 2026-05-06 22:34 | -35.34953 | -58.40358 | 27125 ft | 418 kts | 187° |
| 2026-05-06 22:35 | -35.37851 | -58.40797 | 27998 ft | 410 kts | 187° |
| 2026-05-06 22:35 | -35.40662 | -58.41225 | 28860 ft | 405 kts | 187° |
| 2026-05-06 22:35 | -35.43443 | -58.41645 | 29722 ft | 400 kts | 187° |
| 2026-05-06 22:35 | -35.46184 | -58.42064 | 30578 ft | 395 kts | 187° |
| 2026-05-06 22:36 | -35.48900 | -58.42475 | 31441 ft | 391 kts | 187° |
| 2026-05-06 22:36 | -35.51584 | -58.42885 | 32300 ft | 387 kts | 187° |
| 2026-05-06 22:36 | -35.54244 | -58.43289 | 33168 ft | 383 kts | 187° |
| 2026-05-06 22:36 | -35.56864 | -58.43688 | 34012 ft | 378 kts | 187° |
| 2026-05-06 22:37 | -35.59456 | -58.44084 | 34852 ft | 373 kts | 187° |
| 2026-05-06 22:37 | -35.62111 | -58.44489 | 34995 ft | 389 kts | 187° |
| 2026-05-06 22:37 | -35.64828 | -58.44906 | 34997 ft | 405 kts | 187° |
| 2026-05-06 22:37 | -35.67665 | -58.45336 | 35005 ft | 419 kts | 187° |
| 2026-05-06 22:38 | -35.70597 | -58.45787 | 35013 ft | 430 kts | 187° |
| 2026-05-06 22:38 | -35.73571 | -58.46156 | 35014 ft | 422 kts | 182° |
| 2026-05-06 22:38 | -35.76410 | -58.45915 | 35009 ft | 398 kts | 172° |
| 2026-05-06 22:38 | -35.79043 | -58.45182 | 34996 ft | 379 kts | 164° |
| 2026-05-06 22:39 | -35.81534 | -58.44353 | 34998 ft | 363 kts | 166° |
| 2026-05-06 22:39 | -35.83934 | -58.43584 | 34998 ft | 349 kts | 166° |
| 2026-05-06 22:39 | -35.88544 | -58.42080 | 34996 ft | 338 kts | 165° |
| 2026-05-06 22:40 | -35.93061 | -58.40601 | 34996 ft | 330 kts | 166° |
| 2026-05-06 22:40 | -35.97436 | -58.39170 | 35002 ft | 320 kts | 165° |
| 2026-05-06 22:41 | -36.03782 | -58.37087 | 34992 ft | 311 kts | 165° |
| 2026-05-06 22:42 | -36.08020 | -58.35695 | 34989 ft | 319 kts | 165° |
| 2026-05-06 22:42 | -36.12422 | -58.34249 | 35001 ft | 338 kts | 165° |
| 2026-05-06 22:43 | -36.17092 | -58.32712 | 35008 ft | 356 kts | 165° |
| 2026-05-06 22:43 | -36.21967 | -58.31106 | 35011 ft | 369 kts | 165° |
| 2026-05-06 22:44 | -36.26997 | -58.29447 | 35016 ft | 377 kts | 165° |
| 2026-05-06 22:44 | -36.32080 | -58.27767 | 35009 ft | 379 kts | 165° |
| 2026-05-06 22:45 | -36.37185 | -58.26078 | 35008 ft | 381 kts | 165° |
| 2026-05-06 22:45 | -36.42314 | -58.24377 | 35009 ft | 382 kts | 165° |
| 2026-05-06 22:46 | -36.47452 | -58.22672 | 35009 ft | 383 kts | 165° |
| 2026-05-06 22:46 | -36.52597 | -58.20962 | 35007 ft | 383 kts | 165° |
| 2026-05-06 22:47 | -36.57753 | -58.19245 | 35008 ft | 383 kts | 165° |
| 2026-05-06 22:47 | -36.62911 | -58.17526 | 35009 ft | 384 kts | 165° |
| 2026-05-06 22:48 | -36.68069 | -58.15805 | 35012 ft | 384 kts | 165° |
| 2026-05-06 22:48 | -36.73227 | -58.14083 | 35008 ft | 384 kts | 165° |
| 2026-05-06 22:49 | -36.78419 | -58.12346 | 34977 ft | 385 kts | 165° |
| 2026-05-06 22:49 | -36.81001 | -58.11481 | 34624 ft | 382 kts | 165° |
| 2026-05-06 22:49 | -36.83546 | -58.10629 | 34247 ft | 375 kts | 165° |
| 2026-05-06 22:49 | -36.86040 | -58.09791 | 33845 ft | 368 kts | 165° |
| 2026-05-06 22:50 | -36.88500 | -58.08967 | 33441 ft | 363 kts | 165° |
| 2026-05-06 22:50 | -36.90921 | -58.08152 | 33038 ft | 359 kts | 165° |
| 2026-05-06 22:50 | -36.93316 | -58.07350 | 32635 ft | 355 kts | 165° |
| 2026-05-06 22:50 | -36.95684 | -58.06550 | 32232 ft | 351 kts | 165° |
| 2026-05-06 22:51 | -36.98033 | -58.05763 | 31829 ft | 348 kts | 165° |
| 2026-05-06 22:51 | -37.00359 | -58.04977 | 31427 ft | 345 kts | 165° |
| 2026-05-06 22:51 | -37.02670 | -58.04201 | 31025 ft | 342 kts | 165° |
| 2026-05-06 22:51 | -37.04960 | -58.03427 | 30617 ft | 340 kts | 165° |
| 2026-05-06 22:52 | -37.07248 | -58.02727 | 30221 ft | 336 kts | 169° |
| 2026-05-06 22:52 | -37.09561 | -58.02224 | 29578 ft | 340 kts | 171° |
| 2026-05-06 22:52 | -37.11912 | -58.01724 | 28910 ft | 345 kts | 170° |
| 2026-05-06 22:52 | -37.14291 | -58.01183 | 28243 ft | 349 kts | 170° |
| 2026-05-06 22:53 | -37.16692 | -58.00639 | 27578 ft | 352 kts | 170° |
| 2026-05-06 22:53 | -37.19106 | -58.00095 | 26913 ft | 353 kts | 170° |
| 2026-05-06 22:53 | -37.21527 | -57.99560 | 26246 ft | 353 kts | 170° |
| 2026-05-06 22:53 | -37.23967 | -57.99008 | 25570 ft | 350 kts | 170° |
| 2026-05-06 22:54 | -37.26365 | -57.98473 | 24782 ft | 350 kts | 170° |
| 2026-05-06 22:54 | -37.28762 | -57.97930 | 23916 ft | 350 kts | 170° |
| 2026-05-06 22:54 | -37.31150 | -57.97398 | 23052 ft | 348 kts | 170° |
| 2026-05-06 22:54 | -37.33536 | -57.96857 | 22183 ft | 346 kts | 170° |
| 2026-05-06 22:55 | -37.35891 | -57.96330 | 21318 ft | 343 kts | 170° |
| 2026-05-06 22:55 | -37.38225 | -57.95803 | 20450 ft | 339 kts | 170° |
| 2026-05-06 22:55 | -37.40519 | -57.95285 | 19410 ft | 322 kts | 170° |
| 2026-05-06 22:55 | -37.42636 | -57.94809 | 18311 ft | 307 kts | 170° |
| 2026-05-06 22:56 | -37.44767 | -57.94326 | 17222 ft | 315 kts | 170° |
| 2026-05-06 22:56 | -37.46949 | -57.93838 | 16136 ft | 320 kts | 170° |
| 2026-05-06 22:56 | -37.49073 | -57.93351 | 14994 ft | 293 kts | 170° |
| 2026-05-06 22:56 | -37.51012 | -57.92920 | 13752 ft | 282 kts | 170° |
| 2026-05-06 22:57 | -37.52996 | -57.92465 | 12523 ft | 296 kts | 170° |
| 2026-05-06 22:57 | -37.55054 | -57.92007 | 11299 ft | 305 kts | 170° |
| 2026-05-06 22:57 | -37.57158 | -57.91524 | 10071 ft | 309 kts | 170° |
| 2026-05-06 22:57 | -37.59163 | -57.91073 | 8819 ft | 274 kts | 170° |
| 2026-05-06 22:58 | -37.61057 | -57.90641 | 7644 ft | 273 kts | 170° |
| 2026-05-06 22:58 | -37.62819 | -57.90240 | 6517 ft | 245 kts | 171° |
| 2026-05-06 22:58 | -37.64509 | -57.89862 | 5408 ft | 254 kts | 170° |
| 2026-05-06 22:58 | -37.66281 | -57.89455 | 4434 ft | 262 kts | 170° |
| 2026-05-06 22:59 | -37.68086 | -57.89053 | 3517 ft | 265 kts | 170° |
| 2026-05-06 22:59 | -37.69832 | -57.88643 | 3287 ft | 241 kts | 170° |
| 2026-05-06 22:59 | -37.71412 | -57.88295 | 3279 ft | 224 kts | 170° |
| 2026-05-06 22:59 | -37.72941 | -57.87940 | 3273 ft | 216 kts | 170° |
| 2026-05-06 23:00 | -37.74383 | -57.87620 | 3273 ft | 211 kts | 170° |
| 2026-05-06 23:00 | -37.75826 | -57.87284 | 3272 ft | 206 kts | 170° |
| 2026-05-06 23:00 | -37.77221 | -57.86955 | 3272 ft | 202 kts | 166° |
| 2026-05-06 23:00 | -37.78438 | -57.86155 | 3274 ft | 200 kts | 142° |
| 2026-05-06 23:01 | -37.79386 | -57.84861 | 3273 ft | 198 kts | 122° |
| 2026-05-06 23:01 | -37.80107 | -57.83388 | 3275 ft | 197 kts | 124° |
| 2026-05-06 23:01 | -37.80867 | -57.81955 | 3273 ft | 196 kts | 123° |
| 2026-05-06 23:01 | -37.81580 | -57.80559 | 3261 ft | 179 kts | 116° |
| 2026-05-06 23:02 | -37.82248 | -57.79258 | 3117 ft | 174 kts | 115° |
| 2026-05-06 23:02 | -37.82893 | -57.77981 | 2994 ft | 170 kts | 117° |
| 2026-05-06 23:02 | -37.83526 | -57.76760 | 2897 ft | 166 kts | 115° |
| 2026-05-06 23:02 | -37.84155 | -57.75511 | 2632 ft | 171 kts | 115° |
| 2026-05-06 23:03 | -37.84814 | -57.74227 | 2346 ft | 177 kts | 115° |
| 2026-05-06 23:03 | -37.85464 | -57.72954 | 2305 ft | 165 kts | 115° |
| 2026-05-06 23:03 | -37.86069 | -57.71794 | 2294 ft | 154 kts | 113° |
| 2026-05-06 23:03 | -37.86643 | -57.70655 | 2295 ft | 153 kts | 115° |
| 2026-05-06 23:04 | -37.87216 | -57.69542 | 2295 ft | 149 kts | 112° |
| 2026-05-06 23:04 | -37.87791 | -57.68440 | 2253 ft | 153 kts | 115° |
| 2026-05-06 23:04 | -37.88386 | -57.67286 | 2016 ft | 155 kts | 114° |
| 2026-05-06 23:04 | -37.88948 | -57.66218 | 1997 ft | 137 kts | 113° |
| 2026-05-06 23:05 | -37.89427 | -57.65252 | 1969 ft | 124 kts | 111° |
| 2026-05-06 23:05 | -37.89932 | -57.64233 | 1414 ft | 149 kts | 115° |
| 2026-05-06 23:05 | -37.90516 | -57.63071 | 945 ft | 163 kts | 117° |
| 2026-05-06 23:05 | -37.90934 | -57.62232 | 673 ft | 170 kts | 122° |
| 2026-05-06 23:06 | -37.91616 | -57.60908 | 356 ft | 213 kts | 125° |
| 2026-05-06 23:06 | -37.92524 | -57.59123 | 668 ft | 256 kts | 121° |
| 2026-05-06 23:06 | -37.93487 | -57.57188 | 1488 ft | 262 kts | 117° |
| 2026-05-06 23:06 | -37.94483 | -57.55181 | 2336 ft | 288 kts | 116° |
| 2026-05-06 23:07 | -37.95646 | -57.52836 | 3173 ft | 339 kts | 119° |
| 2026-05-06 23:07 | -37.96927 | -57.50332 | 3998 ft | 315 kts | 120° |
| 2026-05-06 23:07 | -37.98025 | -57.48193 | 4790 ft | 266 kts | 120° |
| 2026-05-06 23:07 | -37.98933 | -57.46356 | 5549 ft | 227 kts | 119° |
| 2026-05-06 23:08 | -37.99719 | -57.44789 | 6280 ft | 194 kts | 120° |
| 2026-05-06 23:08 | -38.00433 | -57.43344 | 6424 ft | 203 kts | 119° |
| 2026-05-06 23:08 | -38.01205 | -57.41745 | 6307 ft | 220 kts | 113° |
| 2026-05-06 23:08 | -38.01421 | -57.39821 | 5994 ft | 230 kts | 74° |
| 2026-05-06 23:09 | -38.00727 | -57.37962 | 5424 ft | 240 kts | 42° |
| 2026-05-06 23:09 | -37.99339 | -57.36778 | 4886 ft | 246 kts | 20° |
| 2026-05-06 23:09 | -37.97710 | -57.36005 | 4346 ft | 253 kts | 14° |
| 2026-05-06 23:09 | -37.96001 | -57.35376 | 3807 ft | 257 kts | 12° |
| 2026-05-06 23:10 | -37.94236 | -57.35433 | 3249 ft | 259 kts | 344° |
| 2026-05-06 23:10 | -37.92760 | -57.36739 | 2985 ft | 260 kts | 317° |
| 2026-05-06 23:10 | -37.91675 | -57.38509 | 2988 ft | 252 kts | 311° |
| 2026-05-06 23:10 | -37.90695 | -57.40350 | 2987 ft | 252 kts | 308° |
| 2026-05-06 23:11 | -37.89738 | -57.42210 | 2976 ft | 252 kts | 308° |
| 2026-05-06 23:11 | -37.88772 | -57.44070 | 2843 ft | 255 kts | 308° |
| 2026-05-06 23:11 | -37.87769 | -57.45938 | 2700 ft | 258 kts | 309° |
| 2026-05-06 23:11 | -37.86754 | -57.47828 | 2553 ft | 261 kts | 309° |
| 2026-05-06 23:12 | -37.85748 | -57.49736 | 2473 ft | 260 kts | 308° |
| 2026-05-06 23:12 | -37.84774 | -57.51639 | 2478 ft | 256 kts | 308° |
| 2026-05-06 23:12 | -37.83791 | -57.53540 | 2472 ft | 254 kts | 308° |
| 2026-05-06 23:12 | -37.82827 | -57.55416 | 2474 ft | 255 kts | 308° |
| 2026-05-06 23:13 | -37.81829 | -57.57291 | 2472 ft | 258 kts | 308° |
| 2026-05-06 23:13 | -37.80826 | -57.59185 | 2477 ft | 260 kts | 308° |
| 2026-05-06 23:13 | -37.79802 | -57.61087 | 2471 ft | 262 kts | 308° |
| 2026-05-06 23:13 | -37.78782 | -57.62994 | 2478 ft | 262 kts | 308° |
| 2026-05-06 23:14 | -37.77789 | -57.64862 | 2472 ft | 246 kts | 308° |
| 2026-05-06 23:14 | -37.76870 | -57.66623 | 2469 ft | 235 kts | 308° |
| 2026-05-06 23:14 | -37.75977 | -57.68319 | 2463 ft | 228 kts | 308° |
| 2026-05-06 23:14 | -37.75113 | -57.69980 | 2458 ft | 225 kts | 308° |
| 2026-05-06 23:15 | -37.74244 | -57.71609 | 2458 ft | 222 kts | 308° |
| 2026-05-06 23:15 | -37.73451 | -57.73271 | 2452 ft | 223 kts | 296° |
| 2026-05-06 23:15 | -37.73422 | -57.75253 | 2461 ft | 236 kts | 258° |
| 2026-05-06 23:15 | -37.74362 | -57.76974 | 2459 ft | 246 kts | 222° |
| 2026-05-06 23:16 | -37.75921 | -57.77840 | 2459 ft | 247 kts | 194° |
| 2026-05-06 23:16 | -37.77595 | -57.78342 | 2464 ft | 246 kts | 194° |
| 2026-05-06 23:16 | -37.79258 | -57.78797 | 2459 ft | 242 kts | 192° |
| 2026-05-06 23:16 | -37.80901 | -57.78857 | 2454 ft | 235 kts | 163° |
| 2026-05-06 23:17 | -37.82213 | -57.77837 | 2460 ft | 206 kts | 134° |
| 2026-05-06 23:17 | -37.83249 | -57.76739 | 2457 ft | 184 kts | 136° |
| 2026-05-06 23:17 | -37.84207 | -57.75768 | 2455 ft | 169 kts | 133° |
| 2026-05-06 23:17 | -37.84966 | -57.74729 | 2458 ft | 155 kts | 119° |
| 2026-05-06 23:18 | -37.85638 | -57.73696 | 2453 ft | 147 kts | 118° |
| 2026-05-06 23:18 | -37.86141 | -57.72617 | 2456 ft | 140 kts | 110° |
| 2026-05-06 23:18 | -37.86622 | -57.71557 | 2462 ft | 136 kts | 106° |
| 2026-05-06 23:18 | -37.86992 | -57.70469 | 2461 ft | 135 kts | 104° |
| 2026-05-06 23:19 | -37.87400 | -57.69389 | 2419 ft | 138 kts | 105° |
| 2026-05-06 23:19 | -37.87867 | -57.68283 | 2224 ft | 152 kts | 116° |
| 2026-05-06 23:19 | -37.88522 | -57.67207 | 1972 ft | 152 kts | 117° |
| 2026-05-06 23:19 | -37.89121 | -57.66109 | 1602 ft | 149 kts | 112° |
| 2026-05-06 23:20 | -37.89660 | -57.65039 | 1357 ft | 140 kts | 114° |
| 2026-05-06 23:20 | -37.90072 | -57.63963 | 933 ft | 135 kts | 111° |
| 2026-05-06 23:20 | -37.90558 | -57.62916 | 714 ft | 146 kts | 128° |
| 2026-05-06 23:20 | -37.91117 | -57.61919 | 681 ft | 138 kts | 118° |
| 2026-05-06 23:21 | -37.91588 | -57.60883 | 567 ft | 133 kts | 127° |
| 2026-05-06 23:21 | -37.92106 | -57.59907 | 615 ft | 135 kts | 122° |
| 2026-05-06 23:21 | -37.92609 | -57.58858 | 380 ft | 137 kts | 126° |
| 2026-05-06 23:21 | -37.93116 | -57.57914 | 74 ft | 119 kts | 126° |
| 2026-05-06 23:22 | -37.93482 | -57.57209 | 67 ft | 54 kts | 122° |
| 2026-05-06 23:22 | -37.93564 | -57.57083 | 69 ft | 4 kts | 248° |
| 2026-05-06 23:22 | -37.93497 | -57.57162 | 64 ft | 29 kts | 300° |
| 2026-05-06 23:22 | -37.93386 | -57.57412 | 69 ft | 46 kts | 299° |
| 2026-05-06 23:23 | -37.93265 | -57.57636 | 70 ft | 19 kts | 306° |
| 2026-05-06 23:23 | -37.93190 | -57.57793 | 69 ft | 24 kts | 303° |
| 2026-05-06 23:23 | -37.93152 | -57.57966 | 73 ft | 15 kts | 236° |
| 2026-05-06 23:23 | -37.93226 | -57.58036 | 73 ft | 17 kts | 210° |
| 2026-05-06 23:24 | -37.93288 | -57.58025 | 69 ft | 7 kts | 177° |
| 2026-05-06 23:24 | -37.93300 | -57.58045 | 73 ft | 0 kts | 292° |